createdAt,value
2023-05-25T00:00:20.322Z,64.86
2023-05-25T00:02:49.866Z,65.40
2023-05-25T00:05:19.413Z,65.07
2023-05-25T00:07:49.103Z,65.92
2023-05-25T00:10:18.384Z,66.04
2023-05-25T00:12:47.583Z,65.58
2023-05-25T00:15:17.055Z,65.68
2023-05-25T00:17:50.014Z,65.55
2023-05-25T00:20:20.658Z,66.42
2023-05-25T00:22:49.786Z,65.88
2023-05-25T00:25:19.651Z,65.65
2023-05-25T00:27:48.873Z,66.44
2023-05-25T00:30:18.045Z,66.23
2023-05-25T00:32:47.526Z,66.31
2023-05-25T00:35:17.420Z,66.64
2023-05-25T00:37:47.617Z,66.86
2023-05-25T00:40:18.607Z,66.13
2023-05-25T00:42:49.316Z,66.87
2023-05-25T00:45:21.690Z,65.90
2023-05-25T00:47:53.854Z,67.13
2023-05-25T00:50:41.725Z,66.41
2023-05-25T00:53:13.053Z,65.62
2023-05-25T00:55:59.243Z,64.85
2023-05-25T00:58:32.464Z,64.88
2023-05-25T01:01:03.197Z,65.39
2023-05-25T01:03:39.191Z,65.67
2023-05-25T01:06:14.292Z,65.79
2023-05-25T01:08:49.023Z,65.64
2023-05-25T01:11:21.246Z,65.04
2023-05-25T01:13:54.556Z,65.39
2023-05-25T01:16:24.582Z,64.92
2023-05-25T01:18:55.111Z,65.34
2023-05-25T01:21:55.946Z,65.43
2023-05-25T01:24:45.786Z,64.50
2023-05-25T01:27:33.486Z,64.22
2023-05-25T01:30:06.234Z,63.82
2023-05-25T01:32:38.606Z,62.45
2023-05-25T01:35:10.365Z,62.40
2023-05-25T01:37:46.549Z,61.97
2023-05-25T01:40:16.694Z,62.07
2023-05-25T01:42:46.833Z,60.93
2023-05-25T01:45:17.901Z,60.67
2023-05-25T01:48:07.680Z,59.84
2023-05-25T01:50:55.177Z,57.81
2023-05-25T01:53:35.902Z,57.47
2023-05-25T01:56:09.732Z,56.24
2023-05-25T01:58:46.073Z,57.09
2023-05-25T02:01:20.068Z,55.45
2023-05-25T02:03:50.620Z,53.51
2023-05-25T02:06:20.922Z,53.47
2023-05-25T02:08:50.075Z,53.28
2023-05-25T02:11:20.424Z,53.13
2023-05-25T02:13:49.715Z,52.03
2023-05-25T02:16:18.748Z,51.65
2023-05-25T02:18:48.255Z,50.14
2023-05-25T02:21:18.352Z,50.50
2023-05-25T02:23:49.019Z,49.83
2023-05-25T02:26:18.308Z,47.85
2023-05-25T02:28:47.680Z,47.41
2023-05-25T02:31:19.671Z,47.19
2023-05-25T02:33:49.767Z,47.36
2023-05-25T02:36:22.180Z,47.67
2023-05-25T02:38:53.252Z,46.93
2023-05-25T02:41:22.837Z,46.18
2023-05-25T02:43:52.631Z,46.06
2023-05-25T02:46:23.859Z,46.04
2023-05-25T02:48:53.855Z,45.14
2023-05-25T02:51:23.101Z,45.11
2023-05-25T02:53:53.227Z,44.35
2023-05-25T02:56:25.194Z,44.95
2023-05-25T02:58:54.821Z,44.09
2023-05-25T03:01:35.933Z,42.48
2023-05-25T03:04:05.422Z,43.59
2023-05-25T03:06:39.170Z,42.77
2023-05-25T03:09:15.764Z,43.43
2023-05-25T03:11:46.417Z,42.08
2023-05-25T03:14:18.600Z,43.97
2023-05-25T03:16:55.358Z,45.24
2023-05-25T03:19:26.112Z,43.81
2023-05-25T03:21:55.336Z,43.60
2023-05-25T03:24:24.776Z,44.30
2023-05-25T03:26:56.224Z,43.47
2023-05-25T03:29:25.487Z,42.79
2023-05-25T03:31:55.689Z,44.20
2023-05-25T03:34:28.090Z,42.79
2023-05-25T03:36:57.840Z,43.14
2023-05-25T03:39:27.578Z,42.86
2023-05-25T03:41:58.013Z,43.25
2023-05-25T03:44:27.869Z,43.93
2023-05-25T03:46:57.086Z,44.68
2023-05-25T03:49:26.505Z,42.78
2023-05-25T03:51:56.084Z,41.54
2023-05-25T03:54:25.484Z,42.79
2023-05-25T03:57:13.341Z,43.63
2023-05-25T03:59:42.669Z,42.20
2023-05-25T04:02:12.228Z,42.51
2023-05-25T04:04:42.753Z,43.33
2023-05-25T04:07:12.617Z,41.56
2023-05-25T04:09:42.139Z,42.02
2023-05-25T04:12:11.908Z,40.98
2023-05-25T04:14:43.652Z,41.62
2023-05-25T04:17:13.930Z,42.04
2023-05-25T04:19:44.150Z,42.34
2023-05-25T04:22:13.523Z,43.19
2023-05-25T04:24:44.057Z,41.70
2023-05-25T04:27:15.254Z,43.53
2023-05-25T04:29:44.739Z,43.94
2023-05-25T04:32:34.063Z,42.83
2023-05-25T04:35:30.273Z,42.69
2023-05-25T04:38:03.711Z,42.90
2023-05-25T04:40:34.406Z,43.62
2023-05-25T04:43:06.248Z,42.58
2023-05-25T04:45:35.715Z,43.81
2023-05-25T04:48:06.372Z,42.68
2023-05-25T04:50:35.733Z,43.39
2023-05-25T04:53:06.904Z,43.20
2023-05-25T04:55:37.918Z,42.77
2023-05-25T04:58:07.271Z,43.71
2023-05-25T05:00:37.652Z,44.65
2023-05-25T05:03:07.712Z,44.22
2023-05-25T05:05:38.112Z,44.04
2023-05-25T05:08:11.286Z,45.66
2023-05-25T05:10:40.596Z,44.25
2023-05-25T05:13:12.484Z,46.06
2023-05-25T05:15:42.616Z,44.58
2023-05-25T05:18:11.991Z,47.27
2023-05-25T05:20:41.625Z,49.72
2023-05-25T05:23:11.470Z,49.25
2023-05-25T05:25:40.527Z,49.65
2023-05-25T05:28:10.077Z,50.15
2023-05-25T05:30:42.596Z,50.77
2023-05-25T05:33:12.377Z,49.72
2023-05-25T05:35:47.041Z,52.05
2023-05-25T05:38:24.076Z,53.47
2023-05-25T05:40:54.330Z,55.84
2023-05-25T05:43:25.406Z,58.27
2023-05-25T05:45:55.295Z,58.37
2023-05-25T05:48:24.451Z,62.16
2023-05-25T05:50:54.403Z,62.58
2023-05-25T05:53:24.096Z,65.26
2023-05-25T05:55:56.391Z,63.45
2023-05-25T05:58:29.769Z,62.57
2023-05-25T06:01:01.002Z,60.41
2023-05-25T06:03:30.561Z,59.37
2023-05-25T06:05:59.953Z,60.60
2023-05-25T06:08:29.297Z,59.77
2023-05-25T06:10:59.023Z,59.80
2023-05-25T06:13:28.674Z,59.93
2023-05-25T06:15:58.022Z,60.24
2023-05-25T06:18:27.586Z,60.53
2023-05-25T06:20:59.455Z,61.41
2023-05-25T06:23:28.764Z,63.14
2023-05-25T06:25:57.956Z,62.95
2023-05-25T06:28:27.159Z,64.96
2023-05-25T06:30:56.699Z,65.89
2023-05-25T06:33:25.929Z,69.80
2023-05-25T06:36:01.939Z,71.94
2023-05-25T06:38:31.667Z,72.70
2023-05-25T06:41:06.102Z,70.92
2023-05-25T06:43:35.610Z,71.15
2023-05-25T06:46:19.319Z,71.49
2023-05-25T06:48:49.558Z,71.64
2023-05-25T06:51:18.669Z,70.87
2023-05-25T06:53:48.314Z,72.55
2023-05-25T06:56:17.578Z,71.72
2023-05-25T06:58:46.731Z,71.45
2023-05-25T07:01:17.660Z,69.01
2023-05-25T07:03:47.105Z,70.11
2023-05-25T07:06:18.353Z,69.27
2023-05-25T07:08:48.049Z,68.36
2023-05-25T07:11:21.797Z,67.39
2023-05-25T07:13:51.644Z,68.07
2023-05-25T07:16:20.938Z,68.25
2023-05-25T07:18:50.549Z,67.99
2023-05-25T07:21:19.661Z,66.97
2023-05-25T07:23:49.491Z,67.18
2023-05-25T07:26:18.671Z,65.83
2023-05-25T07:28:48.660Z,64.48
2023-05-25T07:31:18.710Z,64.69
2023-05-25T07:33:48.543Z,64.76
2023-05-25T07:36:19.133Z,64.54
2023-05-25T07:38:49.206Z,63.62
2023-05-25T07:41:19.283Z,62.79
2023-05-25T07:43:48.599Z,61.57
2023-05-25T07:46:18.742Z,61.67
2023-05-25T07:48:48.479Z,61.38
2023-05-25T07:51:17.566Z,58.70
2023-05-25T07:53:46.986Z,57.62
2023-05-25T07:56:16.832Z,57.77
2023-05-25T07:58:45.999Z,57.88
2023-05-25T08:01:15.940Z,55.68
2023-05-25T08:03:49.560Z,55.47
2023-05-25T08:06:19.968Z,55.63
2023-05-25T08:08:51.038Z,57.77
2023-05-25T08:11:25.626Z,55.68
2023-05-25T08:13:55.492Z,54.01
2023-05-25T08:16:24.669Z,54.83
2023-05-25T08:18:54.327Z,56.02
2023-05-25T08:21:24.173Z,52.77
2023-05-25T08:23:55.163Z,54.85
2023-05-25T08:26:41.288Z,53.17
2023-05-25T08:29:14.384Z,53.57
2023-05-25T08:31:44.890Z,51.73
2023-05-25T08:34:14.352Z,51.68
2023-05-25T08:36:43.459Z,50.78
2023-05-25T08:39:13.214Z,50.89
2023-05-25T08:41:46.722Z,52.09
2023-05-25T08:44:16.995Z,50.23
2023-05-25T08:46:52.593Z,49.33
2023-05-25T08:49:23.990Z,49.27
2023-05-25T08:51:55.141Z,50.10
2023-05-25T08:54:36.789Z,51.16
2023-05-25T08:57:36.355Z,48.61
2023-05-25T09:00:11.606Z,49.00
2023-05-25T09:02:52.843Z,49.76
2023-05-25T09:05:23.651Z,49.40
2023-05-25T09:07:55.948Z,48.51
2023-05-25T09:10:28.875Z,48.70
2023-05-25T09:12:58.829Z,48.28
2023-05-25T09:15:28.068Z,47.92
2023-05-25T09:17:57.379Z,47.46
2023-05-25T09:20:32.973Z,47.73
2023-05-25T09:23:03.739Z,46.79
2023-05-25T09:25:34.553Z,47.47
2023-05-25T09:28:24.161Z,46.84
2023-05-25T09:30:54.087Z,47.42
2023-05-25T09:33:23.211Z,47.79
2023-05-25T09:35:53.438Z,47.38
2023-05-25T09:38:23.957Z,48.01
2023-05-25T09:40:53.305Z,48.59
2023-05-25T09:43:36.307Z,48.38
2023-05-25T09:46:10.981Z,48.72
2023-05-25T09:48:40.670Z,47.95
2023-05-25T09:51:10.590Z,47.51
2023-05-25T09:53:50.914Z,47.07
2023-05-25T09:56:20.260Z,48.12
2023-05-25T09:58:49.420Z,48.10
2023-05-25T10:01:19.228Z,47.78
2023-05-25T10:04:02.891Z,46.84
2023-05-25T10:06:34.777Z,48.66
2023-05-25T10:09:06.385Z,48.14
2023-05-25T10:11:41.096Z,48.57
2023-05-25T10:14:15.015Z,47.27
2023-05-25T10:16:51.204Z,48.14
2023-05-25T10:19:42.536Z,47.92
2023-05-25T10:22:25.910Z,46.64
2023-05-25T10:25:18.102Z,47.67
2023-05-25T10:28:06.390Z,48.48
2023-05-25T10:30:38.154Z,48.39
2023-05-25T10:33:08.833Z,48.47
2023-05-25T10:35:56.235Z,48.16
2023-05-25T10:38:35.756Z,48.33
2023-05-25T10:41:08.446Z,47.21
2023-05-25T10:43:42.541Z,48.99
2023-05-25T10:46:13.626Z,46.53
2023-05-25T10:48:50.429Z,48.76
2023-05-25T10:51:23.416Z,48.99
2023-05-25T10:54:00.509Z,48.21
2023-05-25T10:56:34.207Z,48.76
2023-05-25T10:59:03.637Z,48.37
2023-05-25T11:01:36.115Z,48.34
2023-05-25T11:04:11.695Z,48.58
2023-05-25T11:06:47.188Z,48.07
2023-05-25T11:09:39.757Z,48.58
2023-05-25T11:12:22.007Z,47.27
2023-05-25T11:15:16.587Z,47.33
2023-05-25T11:17:48.249Z,47.21
2023-05-25T11:20:25.074Z,46.08
2023-05-25T11:22:54.686Z,46.54
2023-05-25T11:25:49.876Z,47.47
2023-05-25T11:28:19.722Z,46.62
2023-05-25T11:30:48.968Z,46.49
2023-05-25T11:33:23.542Z,47.48
2023-05-25T11:35:53.612Z,47.18
2023-05-25T11:38:26.732Z,49.17
2023-05-25T11:40:55.917Z,50.48
2023-05-25T11:43:28.094Z,51.71
2023-05-25T11:46:01.440Z,51.12
2023-05-25T11:48:31.554Z,52.61
2023-05-25T11:51:08.157Z,52.00
2023-05-25T11:53:42.788Z,51.48
2023-05-25T11:56:30.624Z,52.04
2023-05-25T11:59:03.612Z,53.06
2023-05-25T12:01:35.417Z,51.69
2023-05-25T12:04:11.290Z,52.51
2023-05-25T12:06:41.408Z,52.40
2023-05-25T12:09:14.630Z,52.90
2023-05-25T12:11:46.838Z,52.55
2023-05-25T12:14:16.705Z,52.30
2023-05-25T12:16:46.621Z,52.44
2023-05-25T12:19:16.392Z,52.07
2023-05-25T12:21:48.851Z,51.85
2023-05-25T12:24:20.274Z,51.83
2023-05-25T12:27:02.827Z,52.41
2023-05-25T12:29:32.813Z,50.82
2023-05-25T12:32:06.625Z,50.99
2023-05-25T12:34:36.758Z,51.94
2023-05-25T12:37:06.940Z,51.74
2023-05-25T12:39:40.154Z,50.89
2023-05-25T12:42:16.472Z,50.90
2023-05-25T12:44:47.926Z,51.01
2023-05-25T12:47:20.637Z,49.82
2023-05-25T12:49:53.252Z,50.41
2023-05-25T12:52:38.460Z,50.10
2023-05-25T12:55:27.396Z,49.46
2023-05-25T12:58:00.653Z,50.70
2023-05-25T13:00:33.835Z,51.44
2023-05-25T13:03:04.006Z,50.40
2023-05-25T13:05:38.587Z,51.76
2023-05-25T13:08:08.780Z,51.79
2023-05-25T13:10:40.039Z,51.65
2023-05-25T13:13:09.330Z,51.79
2023-05-25T13:15:38.688Z,52.07
2023-05-25T13:18:08.027Z,53.42
2023-05-25T13:20:38.038Z,52.75
2023-05-25T13:23:07.467Z,53.62
2023-05-25T13:25:37.652Z,53.73
2023-05-25T13:28:09.186Z,54.55
2023-05-25T13:30:38.931Z,53.96
2023-05-25T13:33:08.628Z,54.06
2023-05-25T13:35:59.154Z,53.97
2023-05-25T13:38:30.657Z,53.22
2023-05-25T13:40:59.997Z,53.36
2023-05-25T13:43:30.830Z,54.13
2023-05-25T13:46:01.172Z,53.88
2023-05-25T13:48:31.357Z,54.86
2023-05-25T13:51:01.000Z,55.00
2023-05-25T13:53:30.418Z,55.08
2023-05-25T13:55:59.688Z,55.62
2023-05-25T13:58:29.074Z,54.87
2023-05-25T14:00:58.365Z,54.67
2023-05-25T14:03:27.870Z,54.82
2023-05-25T14:05:57.197Z,54.42
2023-05-25T14:08:26.798Z,54.82
2023-05-25T14:10:56.570Z,54.67
2023-05-25T14:13:26.050Z,55.12
2023-05-25T14:15:55.332Z,55.02
2023-05-25T14:18:24.621Z,55.04
2023-05-25T14:20:53.955Z,54.68
2023-05-25T14:23:23.721Z,54.49
2023-05-25T14:25:53.294Z,54.50
2023-05-25T14:28:23.576Z,54.23
2023-05-25T14:30:54.438Z,53.96
2023-05-25T14:33:23.735Z,53.28
2023-05-25T14:35:53.520Z,53.77
2023-05-25T14:38:24.421Z,53.68
2023-05-25T14:40:54.759Z,53.62
2023-05-25T14:43:24.613Z,53.72
2023-05-25T14:45:54.369Z,54.44
2023-05-25T14:48:26.475Z,54.48
2023-05-25T14:50:56.384Z,54.38
2023-05-25T14:53:26.490Z,54.63
2023-05-25T14:55:56.140Z,53.97
2023-05-25T14:58:25.378Z,54.53
2023-05-25T15:00:55.617Z,55.42
2023-05-25T15:03:26.402Z,55.67
2023-05-25T15:05:56.597Z,55.65
2023-05-25T15:08:26.208Z,54.97
2023-05-25T15:10:55.800Z,56.24
2023-05-25T15:13:24.984Z,56.17
2023-05-25T15:15:57.506Z,56.47
2023-05-25T15:18:27.779Z,56.78
2023-05-25T15:20:59.342Z,57.21
2023-05-25T15:23:29.096Z,57.38
2023-05-25T15:26:05.551Z,57.60
2023-05-25T15:28:36.127Z,57.67
2023-05-25T15:31:06.184Z,57.67
2023-05-25T15:33:51.558Z,57.83
2023-05-25T15:36:23.671Z,57.97
2023-05-25T15:38:52.980Z,58.83
2023-05-25T15:41:23.082Z,58.55
2023-05-25T15:44:02.110Z,58.85
2023-05-25T15:46:31.853Z,58.97
2023-05-25T15:49:01.110Z,58.39
2023-05-25T15:51:30.499Z,58.83
2023-05-25T15:54:00.488Z,58.75
2023-05-25T15:56:29.664Z,59.28
2023-05-25T15:59:00.046Z,59.34
2023-05-25T16:01:29.937Z,59.60
2023-05-25T16:04:00.309Z,59.91
2023-05-25T16:06:31.749Z,60.51
2023-05-25T16:09:02.148Z,59.98
2023-05-25T16:11:34.272Z,60.39
2023-05-25T16:14:03.515Z,60.26
2023-05-25T16:16:32.874Z,60.81
2023-05-25T16:19:02.435Z,60.34
2023-05-25T16:21:31.802Z,60.40
2023-05-25T16:24:01.146Z,60.99
2023-05-25T16:26:30.723Z,60.70
2023-05-25T16:29:00.164Z,61.26
2023-05-25T16:31:30.112Z,61.78
2023-05-25T16:33:59.398Z,61.49
2023-05-25T16:36:29.419Z,61.51
2023-05-25T16:38:59.230Z,61.83
2023-05-25T16:41:29.316Z,62.33
2023-05-25T16:43:59.029Z,62.61
2023-05-25T16:46:28.350Z,62.39
2023-05-25T16:48:58.330Z,62.58
2023-05-25T16:51:27.614Z,62.99
2023-05-25T16:53:57.416Z,63.67
2023-05-25T16:56:27.405Z,63.41
2023-05-25T16:58:57.258Z,63.28
2023-05-25T17:01:27.431Z,63.61
2023-05-25T17:03:57.131Z,63.46
2023-05-25T17:06:26.822Z,63.46
2023-05-25T17:08:56.949Z,64.31
2023-05-25T17:11:30.320Z,63.71
2023-05-25T17:13:59.843Z,64.23
2023-05-25T17:16:29.174Z,65.05
2023-05-25T17:18:58.568Z,64.79
2023-05-25T17:21:28.201Z,65.04
2023-05-25T17:23:57.518Z,65.10
2023-05-25T17:26:27.058Z,65.19
2023-05-25T17:28:57.562Z,65.52
2023-05-25T17:31:28.998Z,65.62
2023-05-25T17:33:59.407Z,65.78
2023-05-25T17:36:29.753Z,66.21
2023-05-25T17:38:59.448Z,65.77
2023-05-25T17:41:30.753Z,66.76
2023-05-25T17:44:00.330Z,66.81
2023-05-25T17:46:29.981Z,65.86
2023-05-25T17:48:59.614Z,66.32
2023-05-25T17:51:29.020Z,66.58
2023-05-25T17:53:58.386Z,66.99
2023-05-25T17:56:28.461Z,65.94
2023-05-25T17:58:58.341Z,66.38
2023-05-25T18:01:28.045Z,67.02
2023-05-25T18:03:57.817Z,66.77
2023-05-25T18:06:29.415Z,66.71
2023-05-25T18:08:59.213Z,66.61
2023-05-25T18:11:30.345Z,67.08
2023-05-25T18:14:00.129Z,66.89
2023-05-25T18:16:29.398Z,67.16
2023-05-25T18:18:59.035Z,67.18
2023-05-25T18:21:28.834Z,67.76
2023-05-25T18:23:58.048Z,67.75
2023-05-25T18:26:28.211Z,68.38
2023-05-25T18:28:57.885Z,67.93
2023-05-25T18:31:28.350Z,67.75
2023-05-25T18:33:58.714Z,67.88
2023-05-25T18:36:28.145Z,68.06
2023-05-25T18:38:57.874Z,68.34
2023-05-25T18:41:27.969Z,69.31
2023-05-25T18:43:57.670Z,67.95
2023-05-25T18:46:28.339Z,69.03
2023-05-25T18:48:58.134Z,68.66
2023-05-25T18:51:28.026Z,68.41
2023-05-25T18:53:59.896Z,68.55
2023-05-25T18:56:29.847Z,68.95
2023-05-25T18:59:00.896Z,68.85
2023-05-25T19:01:31.265Z,69.51
2023-05-25T19:04:08.511Z,69.02
2023-05-25T19:06:38.865Z,68.75
2023-05-25T19:09:09.429Z,69.28
2023-05-25T19:11:39.254Z,69.65
2023-05-25T19:14:09.026Z,68.91
2023-05-25T19:16:38.310Z,68.67
2023-05-25T19:19:07.988Z,69.19
2023-05-25T19:21:37.764Z,69.11
2023-05-25T19:24:07.752Z,68.96
2023-05-25T19:26:38.935Z,69.54
2023-05-25T19:29:08.546Z,68.93
2023-05-25T19:31:38.780Z,69.28
2023-05-25T19:34:08.576Z,68.43
2023-05-25T19:36:38.792Z,68.71
2023-05-25T19:39:08.372Z,69.31
2023-05-25T19:41:38.742Z,69.14
2023-05-25T19:44:09.029Z,68.77
2023-05-25T19:46:40.269Z,68.73
2023-05-25T19:49:09.816Z,68.54
2023-05-25T19:51:39.198Z,68.73
2023-05-25T19:54:08.904Z,69.29
2023-05-25T19:56:38.342Z,68.92
2023-05-25T19:59:08.485Z,68.55
2023-05-25T20:01:38.010Z,69.01
2023-05-25T20:04:07.520Z,70.06
2023-05-25T20:06:38.592Z,69.16
2023-05-25T20:09:08.389Z,69.23
2023-05-25T20:11:37.830Z,68.92
2023-05-25T20:14:09.173Z,69.72
2023-05-25T20:16:38.797Z,69.09
2023-05-25T20:19:12.025Z,68.97
2023-05-25T20:21:41.424Z,69.69
2023-05-25T20:24:10.565Z,69.13
2023-05-25T20:26:40.623Z,69.59
2023-05-25T20:29:10.228Z,69.87
2023-05-25T20:31:39.985Z,70.71
2023-05-25T20:34:09.435Z,70.51
2023-05-25T20:36:39.155Z,71.23
2023-05-25T20:39:08.345Z,71.03
2023-05-25T20:41:38.235Z,71.25
2023-05-25T20:44:07.975Z,70.34
2023-05-25T20:46:37.614Z,70.20
2023-05-25T20:49:06.823Z,70.71
2023-05-25T20:51:36.192Z,71.56
2023-05-25T20:54:05.314Z,71.70
2023-05-25T20:56:35.280Z,71.12
2023-05-25T20:59:04.600Z,70.60
2023-05-25T21:01:34.169Z,71.26
2023-05-25T21:04:03.399Z,70.84
2023-05-25T21:06:33.379Z,70.18
2023-05-25T21:09:02.631Z,70.31
2023-05-25T21:11:32.838Z,69.61
2023-05-25T21:14:02.224Z,69.90
2023-05-25T21:16:31.915Z,67.99
2023-05-25T21:19:01.724Z,67.37
2023-05-25T21:21:34.839Z,67.69
2023-05-25T21:24:04.792Z,68.76
2023-05-25T21:26:33.872Z,68.26
2023-05-25T21:29:03.558Z,68.46
2023-05-25T21:31:32.788Z,68.96
2023-05-25T21:34:02.181Z,67.57
2023-05-25T21:36:31.572Z,68.08
2023-05-25T21:39:01.622Z,68.18
2023-05-25T21:41:32.674Z,68.70
2023-05-25T21:44:02.587Z,68.90
2023-05-25T21:46:31.981Z,68.83
2023-05-25T21:49:01.027Z,68.31
2023-05-25T21:51:39.411Z,69.08
2023-05-25T21:54:08.541Z,68.88
2023-05-25T21:56:37.811Z,69.10
2023-05-25T21:59:07.648Z,69.40
2023-05-25T22:01:36.767Z,69.71
2023-05-25T22:04:06.080Z,69.45
2023-05-25T22:06:35.578Z,70.16
2023-05-25T22:09:04.579Z,69.56
2023-05-25T22:11:34.824Z,70.39
2023-05-25T22:14:04.204Z,70.55
2023-05-25T22:16:33.586Z,70.65
2023-05-25T22:19:02.763Z,71.02
2023-05-25T22:21:39.422Z,71.31
2023-05-25T22:24:08.891Z,71.29
2023-05-25T22:26:38.270Z,71.52
2023-05-25T22:29:07.971Z,71.59
2023-05-25T22:31:37.547Z,71.86
2023-05-25T22:34:06.650Z,71.55
2023-05-25T22:36:37.919Z,72.01
2023-05-25T22:39:07.098Z,71.96
2023-05-25T22:41:36.076Z,71.77
2023-05-25T22:44:05.408Z,70.55
2023-05-25T22:46:34.673Z,70.69
2023-05-25T22:49:03.815Z,71.11
2023-05-25T22:51:33.327Z,71.97
2023-05-25T22:54:02.775Z,72.02
2023-05-25T22:56:31.972Z,72.17
2023-05-25T22:59:01.409Z,72.26
2023-05-25T23:01:30.725Z,71.42
2023-05-25T23:04:00.809Z,71.62
2023-05-25T23:06:30.082Z,71.44
2023-05-25T23:08:59.354Z,71.52
2023-05-25T23:43:32.752Z,68.57
2023-05-25T23:46:02.549Z,68.96
2023-05-25T23:48:32.470Z,69.07
2023-05-25T23:51:01.563Z,68.88
2023-05-25T23:53:31.138Z,68.34
2023-05-25T23:56:00.301Z,69.31
2023-05-25T23:58:29.662Z,68.52
